sensor_id;sensor_type;location;lat;lon;timestamp;P1;durP1;ratioP1;P2;durP2;ratioP2
77324;SDS011;66387;53.440;10.390;2023-03-08T00:01:00;6.18;;;2.80;;
77324;SDS011;66387;53.440;10.390;2023-03-08T00:03:25;4.10;;;3.00;;
77324;SDS011;66387;53.440;10.390;2023-03-08T00:05:51;5.03;;;2.78;;
77324;SDS011;66387;53.440;10.390;2023-03-08T00:08:17;19.92;;;10.02;;
77324;SDS011;66387;53.440;10.390;2023-03-08T00:10:43;5.70;;;3.00;;
77324;SDS011;66387;53.440;10.390;2023-03-08T00:13:09;4.28;;;3.88;;
77324;SDS011;66387;53.440;10.390;2023-03-08T00:15:37;4.22;;;2.53;;
77324;SDS011;66387;53.440;10.390;2023-03-08T00:18:04;3.85;;;2.60;;
77324;SDS011;66387;53.440;10.390;2023-03-08T00:20:30;3.28;;;2.35;;
77324;SDS011;66387;53.440;10.390;2023-03-08T00:22:55;3.80;;;3.20;;
77324;SDS011;66387;53.440;10.390;2023-03-08T00:25:20;6.00;;;2.53;;
77324;SDS011;66387;53.440;10.390;2023-03-08T00:27:46;3.57;;;2.03;;
77324;SDS011;66387;53.440;10.390;2023-03-08T00:30:11;4.57;;;2.67;;
77324;SDS011;66387;53.440;10.390;2023-03-08T00:32:37;2.53;;;2.25;;
77324;SDS011;66387;53.440;10.390;2023-03-08T00:35:03;3.93;;;2.37;;
77324;SDS011;66387;53.440;10.390;2023-03-08T00:37:28;4.75;;;2.72;;
77324;SDS011;66387;53.440;10.390;2023-03-08T00:39:53;3.43;;;2.60;;
77324;SDS011;66387;53.440;10.390;2023-03-08T00:42:22;6.97;;;2.47;;
77324;SDS011;66387;53.440;10.390;2023-03-08T00:44:48;7.82;;;3.25;;
77324;SDS011;66387;53.440;10.390;2023-03-08T00:47:14;2.90;;;2.60;;
77324;SDS011;66387;53.440;10.390;2023-03-08T00:49:40;3.58;;;2.30;;
77324;SDS011;66387;53.440;10.390;2023-03-08T00:52:05;5.47;;;3.40;;
77324;SDS011;66387;53.440;10.390;2023-03-08T00:54:31;3.28;;;2.38;;
77324;SDS011;66387;53.440;10.390;2023-03-08T00:56:56;4.00;;;2.38;;
77324;SDS011;66387;53.440;10.390;2023-03-08T00:59:22;3.83;;;2.90;;
77324;SDS011;66387;53.440;10.390;2023-03-08T01:01:47;4.37;;;2.80;;
77324;SDS011;66387;53.440;10.390;2023-03-08T01:04:12;3.27;;;2.27;;
77324;SDS011;66387;53.440;10.390;2023-03-08T01:06:38;2.92;;;2.42;;
77324;SDS011;66387;53.440;10.390;2023-03-08T01:09:04;4.03;;;2.28;;
77324;SDS011;66387;53.440;10.390;2023-03-08T01:11:30;3.25;;;2.80;;
77324;SDS011;66387;53.440;10.390;2023-03-08T01:13:59;5.53;;;2.30;;
77324;SDS011;66387;53.440;10.390;2023-03-08T01:16:25;3.33;;;2.50;;
77324;SDS011;66387;53.440;10.390;2023-03-08T01:18:54;4.00;;;2.80;;
77324;SDS011;66387;53.440;10.390;2023-03-08T01:21:20;4.75;;;3.08;;
77324;SDS011;66387;53.440;10.390;2023-03-08T01:23:45;5.53;;;2.78;;
77324;SDS011;66387;53.440;10.390;2023-03-08T01:26:12;4.68;;;2.95;;
77324;SDS011;66387;53.440;10.390;2023-03-08T01:28:40;5.28;;;2.70;;
77324;SDS011;66387;53.440;10.390;2023-03-08T01:31:06;3.53;;;2.50;;
77324;SDS011;66387;53.440;10.390;2023-03-08T01:33:34;2.53;;;2.25;;
77324;SDS011;66387;53.440;10.390;2023-03-08T01:36:04;4.68;;;2.75;;
77324;SDS011;66387;53.440;10.390;2023-03-08T01:38:30;3.03;;;2.47;;
77324;SDS011;66387;53.440;10.390;2023-03-08T01:40:57;3.65;;;2.47;;
77324;SDS011;66387;53.440;10.390;2023-03-08T01:43:28;6.70;;;2.88;;
77324;SDS011;66387;53.440;10.390;2023-03-08T01:49:12;5.20;;;3.00;;
77324;SDS011;66387;53.440;10.390;2023-03-08T01:54:24;3.20;;;2.45;;
77324;SDS011;66387;53.440;10.390;2023-03-08T01:56:53;3.75;;;3.15;;
77324;SDS011;66387;53.440;10.390;2023-03-08T01:59:21;4.35;;;3.05;;
77324;SDS011;66387;53.440;10.390;2023-03-08T02:01:47;5.90;;;2.90;;
77324;SDS011;66387;53.440;10.390;2023-03-08T02:04:13;4.13;;;2.88;;
77324;SDS011;66387;53.440;10.390;2023-03-08T02:06:38;5.35;;;2.90;;
77324;SDS011;66387;53.440;10.390;2023-03-08T02:09:05;5.15;;;3.40;;
77324;SDS011;66387;53.440;10.390;2023-03-08T02:11:32;4.80;;;3.00;;
77324;SDS011;66387;53.440;10.390;2023-03-08T02:13:59;6.75;;;3.15;;
77324;SDS011;66387;53.440;10.390;2023-03-08T02:16:25;6.93;;;3.40;;
77324;SDS011;66387;53.440;10.390;2023-03-08T02:18:55;6.50;;;3.53;;
77324;SDS011;66387;53.440;10.390;2023-03-08T02:21:25;5.63;;;3.78;;
77324;SDS011;66387;53.440;10.390;2023-03-08T02:23:51;4.15;;;3.40;;
77324;SDS011;66387;53.440;10.390;2023-03-08T02:26:17;4.72;;;3.22;;
77324;SDS011;66387;53.440;10.390;2023-03-08T02:28:42;5.28;;;4.05;;
77324;SDS011;66387;53.440;10.390;2023-03-08T02:31:09;6.90;;;3.95;;
77324;SDS011;66387;53.440;10.390;2023-03-08T02:33:35;6.95;;;3.65;;
77324;SDS011;66387;53.440;10.390;2023-03-08T02:36:01;8.63;;;3.80;;
77324;SDS011;66387;53.440;10.390;2023-03-08T02:38:27;4.88;;;4.28;;
77324;SDS011;66387;53.440;10.390;2023-03-08T02:40:52;6.13;;;3.55;;
77324;SDS011;66387;53.440;10.390;2023-03-08T02:43:18;4.93;;;4.20;;
77324;SDS011;66387;53.440;10.390;2023-03-08T02:45:44;5.30;;;3.70;;
77324;SDS011;66387;53.440;10.390;2023-03-08T02:48:09;4.60;;;3.72;;
77324;SDS011;66387;53.440;10.390;2023-03-08T02:50:35;6.38;;;4.38;;
77324;SDS011;66387;53.440;10.390;2023-03-08T02:53:00;5.70;;;4.82;;
77324;SDS011;66387;53.440;10.390;2023-03-08T02:55:26;5.53;;;4.20;;
77324;SDS011;66387;53.440;10.390;2023-03-08T02:57:51;6.60;;;4.30;;
77324;SDS011;66387;53.440;10.390;2023-03-08T03:00:17;6.90;;;4.77;;
77324;SDS011;66387;53.440;10.390;2023-03-08T03:02:42;8.60;;;4.68;;
77324;SDS011;66387;53.440;10.390;2023-03-08T03:05:08;7.67;;;5.23;;
77324;SDS011;66387;53.440;10.390;2023-03-08T03:07:35;9.02;;;4.90;;
77324;SDS011;66387;53.440;10.390;2023-03-08T03:10:03;9.35;;;5.57;;
77324;SDS011;66387;53.440;10.390;2023-03-08T03:12:29;9.68;;;5.72;;
77324;SDS011;66387;53.440;10.390;2023-03-08T03:14:54;9.50;;;6.35;;
77324;SDS011;66387;53.440;10.390;2023-03-08T03:17:20;12.52;;;6.72;;
77324;SDS011;66387;53.440;10.390;2023-03-08T03:19:45;10.10;;;5.73;;
77324;SDS011;66387;53.440;10.390;2023-03-08T03:22:10;11.50;;;6.07;;
77324;SDS011;66387;53.440;10.390;2023-03-08T03:24:36;13.40;;;7.00;;
77324;SDS011;66387;53.440;10.390;2023-03-08T03:27:01;10.20;;;6.20;;
77324;SDS011;66387;53.440;10.390;2023-03-08T03:29:26;12.87;;;7.30;;
77324;SDS011;66387;53.440;10.390;2023-03-08T03:31:51;13.07;;;6.90;;
77324;SDS011;66387;53.440;10.390;2023-03-08T03:34:17;9.40;;;6.23;;
77324;SDS011;66387;53.440;10.390;2023-03-08T03:36:42;12.97;;;7.00;;
77324;SDS011;66387;53.440;10.390;2023-03-08T03:39:07;11.87;;;6.53;;
77324;SDS011;66387;53.440;10.390;2023-03-08T03:41:32;13.30;;;7.83;;
77324;SDS011;66387;53.440;10.390;2023-03-08T03:43:58;12.33;;;7.83;;
77324;SDS011;66387;53.440;10.390;2023-03-08T03:46:23;13.17;;;7.53;;
77324;SDS011;66387;53.440;10.390;2023-03-08T03:48:48;12.23;;;7.55;;
77324;SDS011;66387;53.440;10.390;2023-03-08T03:51:15;10.18;;;7.45;;
77324;SDS011;66387;53.440;10.390;2023-03-08T03:53:42;14.95;;;7.97;;
77324;SDS011;66387;53.440;10.390;2023-03-08T03:56:11;14.20;;;8.40;;
77324;SDS011;66387;53.440;10.390;2023-03-08T03:58:44;14.68;;;8.45;;
77324;SDS011;66387;53.440;10.390;2023-03-08T04:01:12;12.35;;;8.10;;
77324;SDS011;66387;53.440;10.390;2023-03-08T04:06:14;13.20;;;6.67;;
77324;SDS011;66387;53.440;10.390;2023-03-08T04:08:42;14.63;;;7.60;;
77324;SDS011;66387;53.440;10.390;2023-03-08T04:11:08;14.05;;;8.00;;
77324;SDS011;66387;53.440;10.390;2023-03-08T04:13:34;17.55;;;7.53;;
77324;SDS011;66387;53.440;10.390;2023-03-08T04:16:07;14.27;;;8.20;;
77324;SDS011;66387;53.440;10.390;2023-03-08T04:18:36;13.27;;;7.55;;
77324;SDS011;66387;53.440;10.390;2023-03-08T04:21:02;13.57;;;7.57;;
77324;SDS011;66387;53.440;10.390;2023-03-08T04:23:27;13.77;;;7.53;;
77324;SDS011;66387;53.440;10.390;2023-03-08T04:25:52;14.87;;;7.70;;
77324;SDS011;66387;53.440;10.390;2023-03-08T04:28:17;11.43;;;6.83;;
77324;SDS011;66387;53.440;10.390;2023-03-08T04:30:43;14.47;;;7.30;;
77324;SDS011;66387;53.440;10.390;2023-03-08T04:33:08;12.90;;;7.83;;
77324;SDS011;66387;53.440;10.390;2023-03-08T04:35:33;14.30;;;7.07;;
77324;SDS011;66387;53.440;10.390;2023-03-08T04:37:58;11.17;;;7.07;;
77324;SDS011;66387;53.440;10.390;2023-03-08T04:40:24;15.27;;;7.77;;
77324;SDS011;66387;53.440;10.390;2023-03-08T04:42:49;11.20;;;6.53;;
77324;SDS011;66387;53.440;10.390;2023-03-08T04:45:14;12.23;;;8.47;;
77324;SDS011;66387;53.440;10.390;2023-03-08T04:47:40;12.00;;;7.35;;
77324;SDS011;66387;53.440;10.390;2023-03-08T04:50:05;14.67;;;7.97;;
77324;SDS011;66387;53.440;10.390;2023-03-08T04:52:32;12.55;;;7.07;;
77324;SDS011;66387;53.440;10.390;2023-03-08T04:54:57;15.80;;;7.70;;
77324;SDS011;66387;53.440;10.390;2023-03-08T04:57:22;11.55;;;7.57;;
77324;SDS011;66387;53.440;10.390;2023-03-08T04:59:48;11.90;;;7.70;;
77324;SDS011;66387;53.440;10.390;2023-03-08T05:02:13;13.33;;;7.57;;
77324;SDS011;66387;53.440;10.390;2023-03-08T05:04:38;10.60;;;5.97;;
77324;SDS011;66387;53.440;10.390;2023-03-08T05:07:03;13.97;;;7.30;;
77324;SDS011;66387;53.440;10.390;2023-03-08T05:09:29;11.82;;;6.82;;
77324;SDS011;66387;53.440;10.390;2023-03-08T05:11:54;13.73;;;6.67;;
77324;SDS011;66387;53.440;10.390;2023-03-08T05:14:19;13.50;;;7.27;;
77324;SDS011;66387;53.440;10.390;2023-03-08T05:16:45;8.52;;;5.88;;
77324;SDS011;66387;53.440;10.390;2023-03-08T05:19:11;13.70;;;6.72;;
77324;SDS011;66387;53.440;10.390;2023-03-08T05:21:36;9.52;;;5.72;;
77324;SDS011;66387;53.440;10.390;2023-03-08T05:24:01;12.27;;;6.73;;
77324;SDS011;66387;53.440;10.390;2023-03-08T05:26:27;6.60;;;5.53;;
77324;SDS011;66387;53.440;10.390;2023-03-08T05:28:52;7.75;;;5.65;;
77324;SDS011;66387;53.440;10.390;2023-03-08T05:31:18;8.20;;;5.60;;
77324;SDS011;66387;53.440;10.390;2023-03-08T05:33:45;10.43;;;6.18;;
77324;SDS011;66387;53.440;10.390;2023-03-08T05:36:15;8.98;;;5.38;;
77324;SDS011;66387;53.440;10.390;2023-03-08T05:38:42;9.30;;;7.18;;
77324;SDS011;66387;53.440;10.390;2023-03-08T05:41:08;11.50;;;5.55;;
77324;SDS011;66387;53.440;10.390;2023-03-08T05:43:36;8.73;;;6.43;;
77324;SDS011;66387;53.440;10.390;2023-03-08T05:46:03;12.17;;;6.43;;
77324;SDS011;66387;53.440;10.390;2023-03-08T05:48:30;11.13;;;6.45;;
77324;SDS011;66387;53.440;10.390;2023-03-08T05:50:57;10.25;;;5.22;;
77324;SDS011;66387;53.440;10.390;2023-03-08T05:53:22;11.48;;;6.65;;
77324;SDS011;66387;53.440;10.390;2023-03-08T05:55:47;8.98;;;5.72;;
77324;SDS011;66387;53.440;10.390;2023-03-08T05:58:13;10.57;;;6.18;;
77324;SDS011;66387;53.440;10.390;2023-03-08T06:00:38;9.20;;;5.97;;
77324;SDS011;66387;53.440;10.390;2023-03-08T06:03:04;10.50;;;5.50;;
77324;SDS011;66387;53.440;10.390;2023-03-08T06:05:29;8.13;;;5.43;;
77324;SDS011;66387;53.440;10.390;2023-03-08T06:07:55;8.15;;;5.10;;
77324;SDS011;66387;53.440;10.390;2023-03-08T06:10:21;10.18;;;6.15;;
77324;SDS011;66387;53.440;10.390;2023-03-08T06:12:46;8.25;;;5.72;;
77324;SDS011;66387;53.440;10.390;2023-03-08T06:15:11;11.57;;;5.43;;
77324;SDS011;66387;53.440;10.390;2023-03-08T06:17:37;8.88;;;5.53;;
77324;SDS011;66387;53.440;10.390;2023-03-08T06:20:03;8.15;;;4.93;;
77324;SDS011;66387;53.440;10.390;2023-03-08T06:22:29;9.15;;;4.97;;
77324;SDS011;66387;53.440;10.390;2023-03-08T06:24:54;9.10;;;4.87;;
77324;SDS011;66387;53.440;10.390;2023-03-08T06:27:19;7.33;;;4.50;;
77324;SDS011;66387;53.440;10.390;2023-03-08T06:29:45;10.40;;;5.07;;
77324;SDS011;66387;53.440;10.390;2023-03-08T06:32:12;6.72;;;4.72;;
77324;SDS011;66387;53.440;10.390;2023-03-08T06:34:37;8.23;;;4.97;;
77324;SDS011;66387;53.440;10.390;2023-03-08T06:37:02;6.93;;;4.80;;
77324;SDS011;66387;53.440;10.390;2023-03-08T06:39:28;7.63;;;4.43;;
77324;SDS011;66387;53.440;10.390;2023-03-08T06:41:55;7.15;;;4.32;;
77324;SDS011;66387;53.440;10.390;2023-03-08T06:44:20;6.03;;;4.70;;
77324;SDS011;66387;53.440;10.390;2023-03-08T06:46:46;7.63;;;4.97;;
77324;SDS011;66387;53.440;10.390;2023-03-08T06:49:11;6.73;;;4.03;;
77324;SDS011;66387;53.440;10.390;2023-03-08T06:51:36;9.65;;;4.57;;
77324;SDS011;66387;53.440;10.390;2023-03-08T06:54:02;7.25;;;4.70;;
77324;SDS011;66387;53.440;10.390;2023-03-08T06:56:27;7.68;;;4.68;;
77324;SDS011;66387;53.440;10.390;2023-03-08T06:58:52;6.47;;;4.60;;
77324;SDS011;66387;53.440;10.390;2023-03-08T07:01:18;7.27;;;4.57;;
77324;SDS011;66387;53.440;10.390;2023-03-08T07:03:43;6.77;;;4.63;;
77324;SDS011;66387;53.440;10.390;2023-03-08T07:06:09;9.10;;;4.65;;
77324;SDS011;66387;53.440;10.390;2023-03-08T07:08:34;6.25;;;4.38;;
77324;SDS011;66387;53.440;10.390;2023-03-08T07:11:01;7.55;;;4.38;;
77324;SDS011;66387;53.440;10.390;2023-03-08T07:13:26;6.50;;;4.45;;
77324;SDS011;66387;53.440;10.390;2023-03-08T07:15:52;10.60;;;4.95;;
77324;SDS011;66387;53.440;10.390;2023-03-08T07:18:18;6.93;;;4.70;;
77324;SDS011;66387;53.440;10.390;2023-03-08T07:20:44;6.45;;;4.45;;
77324;SDS011;66387;53.440;10.390;2023-03-08T07:23:09;6.00;;;3.80;;
77324;SDS011;66387;53.440;10.390;2023-03-08T07:25:36;8.13;;;4.60;;
77324;SDS011;66387;53.440;10.390;2023-03-08T07:28:02;12.77;;;5.18;;
77324;SDS011;66387;53.440;10.390;2023-03-08T07:30:28;6.57;;;4.30;;
77324;SDS011;66387;53.440;10.390;2023-03-08T07:32:53;8.17;;;4.13;;
77324;SDS011;66387;53.440;10.390;2023-03-08T07:35:18;5.90;;;3.70;;
77324;SDS011;66387;53.440;10.390;2023-03-08T07:37:44;6.95;;;4.97;;
77324;SDS011;66387;53.440;10.390;2023-03-08T07:40:12;5.13;;;3.80;;
77324;SDS011;66387;53.440;10.390;2023-03-08T07:42:40;7.68;;;5.28;;
77324;SDS011;66387;53.440;10.390;2023-03-08T07:45:06;8.32;;;4.72;;
77324;SDS011;66387;53.440;10.390;2023-03-08T07:47:31;9.02;;;5.32;;
77324;SDS011;66387;53.440;10.390;2023-03-08T07:49:57;9.33;;;4.60;;
77324;SDS011;66387;53.440;10.390;2023-03-08T07:52:26;7.70;;;4.27;;
77324;SDS011;66387;53.440;10.390;2023-03-08T07:54:52;6.78;;;4.80;;
77324;SDS011;66387;53.440;10.390;2023-03-08T07:57:17;8.70;;;4.47;;
77324;SDS011;66387;53.440;10.390;2023-03-08T07:59:42;7.60;;;4.90;;
77324;SDS011;66387;53.440;10.390;2023-03-08T08:02:10;8.33;;;4.50;;
77324;SDS011;66387;53.440;10.390;2023-03-08T08:04:36;6.93;;;4.75;;
77324;SDS011;66387;53.440;10.390;2023-03-08T08:07:02;6.73;;;4.10;;
77324;SDS011;66387;53.440;10.390;2023-03-08T08:09:27;9.00;;;4.65;;
77324;SDS011;66387;53.440;10.390;2023-03-08T08:11:53;6.80;;;5.00;;
77324;SDS011;66387;53.440;10.390;2023-03-08T08:14:18;6.78;;;4.30;;
77324;SDS011;66387;53.440;10.390;2023-03-08T08:16:43;8.37;;;4.67;;
77324;SDS011;66387;53.440;10.390;2023-03-08T08:19:09;8.57;;;5.07;;
77324;SDS011;66387;53.440;10.390;2023-03-08T08:21:36;6.15;;;4.30;;
77324;SDS011;66387;53.440;10.390;2023-03-08T08:24:01;8.95;;;4.85;;
77324;SDS011;66387;53.440;10.390;2023-03-08T08:26:26;6.80;;;5.17;;
77324;SDS011;66387;53.440;10.390;2023-03-08T08:28:52;8.52;;;5.18;;
77324;SDS011;66387;53.440;10.390;2023-03-08T08:31:22;9.48;;;5.05;;
77324;SDS011;66387;53.440;10.390;2023-03-08T08:33:49;6.70;;;4.18;;
77324;SDS011;66387;53.440;10.390;2023-03-08T08:36:16;6.68;;;4.72;;
77324;SDS011;66387;53.440;10.390;2023-03-08T08:38:43;7.28;;;4.95;;
77324;SDS011;66387;53.440;10.390;2023-03-08T08:41:10;6.32;;;4.35;;
77324;SDS011;66387;53.440;10.390;2023-03-08T08:43:36;7.68;;;4.20;;
77324;SDS011;66387;53.440;10.390;2023-03-08T08:46:01;9.70;;;5.33;;
77324;SDS011;66387;53.440;10.390;2023-03-08T08:48:28;6.68;;;4.55;;
77324;SDS011;66387;53.440;10.390;2023-03-08T08:50:54;7.15;;;4.40;;
77324;SDS011;66387;53.440;10.390;2023-03-08T08:53:21;4.95;;;3.70;;
77324;SDS011;66387;53.440;10.390;2023-03-08T08:55:46;8.37;;;4.37;;
77324;SDS011;66387;53.440;10.390;2023-03-08T08:58:12;7.82;;;3.85;;
77324;SDS011;66387;53.440;10.390;2023-03-08T09:00:37;9.23;;;4.72;;
77324;SDS011;66387;53.440;10.390;2023-03-08T09:03:03;6.55;;;4.35;;
77324;SDS011;66387;53.440;10.390;2023-03-08T09:05:29;5.25;;;3.80;;
77324;SDS011;66387;53.440;10.390;2023-03-08T09:07:56;5.78;;;4.03;;
77324;SDS011;66387;53.440;10.390;2023-03-08T09:10:23;6.93;;;4.03;;
77324;SDS011;66387;53.440;10.390;2023-03-08T09:12:54;7.78;;;4.35;;
77324;SDS011;66387;53.440;10.390;2023-03-08T09:15:19;6.22;;;3.78;;
77324;SDS011;66387;53.440;10.390;2023-03-08T09:17:46;4.65;;;3.20;;
77324;SDS011;66387;53.440;10.390;2023-03-08T09:20:11;7.05;;;4.18;;
77324;SDS011;66387;53.440;10.390;2023-03-08T09:22:37;6.68;;;3.67;;
77324;SDS011;66387;53.440;10.390;2023-03-08T09:25:03;7.03;;;3.85;;
77324;SDS011;66387;53.440;10.390;2023-03-08T09:27:29;7.40;;;4.07;;
77324;SDS011;66387;53.440;10.390;2023-03-08T09:29:54;6.90;;;3.57;;
77324;SDS011;66387;53.440;10.390;2023-03-08T09:32:20;6.67;;;3.53;;
77324;SDS011;66387;53.440;10.390;2023-03-08T09:34:45;5.10;;;3.55;;
77324;SDS011;66387;53.440;10.390;2023-03-08T09:37:11;5.03;;;3.33;;
77324;SDS011;66387;53.440;10.390;2023-03-08T09:39:36;6.53;;;3.97;;
77324;SDS011;66387;53.440;10.390;2023-03-08T09:42:03;5.68;;;3.05;;
77324;SDS011;66387;53.440;10.390;2023-03-08T09:47:06;7.05;;;2.88;;
77324;SDS011;66387;53.440;10.390;2023-03-08T09:49:44;6.03;;;3.35;;
77324;SDS011;66387;53.440;10.390;2023-03-08T09:54:57;4.53;;;2.90;;
77324;SDS011;66387;53.440;10.390;2023-03-08T09:57:27;5.60;;;3.35;;
77324;SDS011;66387;53.440;10.390;2023-03-08T10:00:00;6.88;;;3.38;;
77324;SDS011;66387;53.440;10.390;2023-03-08T10:05:24;4.65;;;2.83;;
77324;SDS011;66387;53.440;10.390;2023-03-08T10:08:02;5.72;;;2.83;;
77324;SDS011;66387;53.440;10.390;2023-03-08T10:13:32;5.40;;;3.10;;
77324;SDS011;66387;53.440;10.390;2023-03-08T10:16:21;4.72;;;3.35;;
77324;SDS011;66387;53.440;10.390;2023-03-08T10:21:46;7.72;;;3.03;;
77324;SDS011;66387;53.440;10.390;2023-03-08T10:24:23;9.15;;;3.55;;
77324;SDS011;66387;53.440;10.390;2023-03-08T10:29:54;3.40;;;2.65;;
77324;SDS011;66387;53.440;10.390;2023-03-08T10:32:22;4.30;;;3.05;;
77324;SDS011;66387;53.440;10.390;2023-03-08T10:34:48;7.70;;;3.65;;
77324;SDS011;66387;53.440;10.390;2023-03-08T10:37:14;5.50;;;3.00;;
77324;SDS011;66387;53.440;10.390;2023-03-08T10:39:47;3.85;;;2.40;;
77324;SDS011;66387;53.440;10.390;2023-03-08T10:42:19;5.55;;;2.92;;
77324;SDS011;66387;53.440;10.390;2023-03-08T10:45:02;3.50;;;2.80;;
77324;SDS011;66387;53.440;10.390;2023-03-08T10:47:51;5.32;;;3.33;;
77324;SDS011;66387;53.440;10.390;2023-03-08T10:50:20;5.38;;;4.03;;
77324;SDS011;66387;53.440;10.390;2023-03-08T10:52:48;5.18;;;2.97;;
77324;SDS011;66387;53.440;10.390;2023-03-08T10:55:22;6.75;;;3.58;;
77324;SDS011;66387;53.440;10.390;2023-03-08T10:57:52;4.93;;;3.25;;
77324;SDS011;66387;53.440;10.390;2023-03-08T11:02:45;4.68;;;2.97;;
77324;SDS011;66387;53.440;10.390;2023-03-08T11:05:19;6.78;;;3.40;;
77324;SDS011;66387;53.440;10.390;2023-03-08T11:10:17;4.15;;;2.50;;
77324;SDS011;66387;53.440;10.390;2023-03-08T11:12:44;6.25;;;3.28;;
77324;SDS011;66387;53.440;10.390;2023-03-08T11:15:13;3.45;;;2.50;;
77324;SDS011;66387;53.440;10.390;2023-03-08T11:17:42;7.03;;;2.78;;
77324;SDS011;66387;53.440;10.390;2023-03-08T11:20:55;4.75;;;2.40;;
77324;SDS011;66387;53.440;10.390;2023-03-08T11:26:02;3.95;;;2.53;;
77324;SDS011;66387;53.440;10.390;2023-03-08T11:36:34;5.03;;;2.45;;
77324;SDS011;66387;53.440;10.390;2023-03-08T11:45:02;4.03;;;2.63;;
77324;SDS011;66387;53.440;10.390;2023-03-08T11:50:18;4.40;;;2.67;;
77324;SDS011;66387;53.440;10.390;2023-03-08T11:55:35;6.13;;;3.25;;
77324;SDS011;66387;53.440;10.390;2023-03-08T11:58:11;4.25;;;2.70;;
77324;SDS011;66387;53.440;10.390;2023-03-08T12:00:42;4.45;;;2.42;;
77324;SDS011;66387;53.440;10.390;2023-03-08T12:03:13;3.30;;;2.90;;
77324;SDS011;66387;53.440;10.390;2023-03-08T12:05:45;3.63;;;2.50;;
77324;SDS011;66387;53.440;10.390;2023-03-08T12:08:28;5.70;;;2.65;;
77324;SDS011;66387;53.440;10.390;2023-03-08T12:11:02;6.15;;;3.05;;
77324;SDS011;66387;53.440;10.390;2023-03-08T12:18:44;5.50;;;3.08;;
77324;SDS011;66387;53.440;10.390;2023-03-08T12:21:20;4.07;;;1.88;;
77324;SDS011;66387;53.440;10.390;2023-03-08T12:23:56;4.20;;;2.35;;
77324;SDS011;66387;53.440;10.390;2023-03-08T12:26:35;3.17;;;2.10;;
77324;SDS011;66387;53.440;10.390;2023-03-08T12:29:12;5.95;;;2.17;;
77324;SDS011;66387;53.440;10.390;2023-03-08T12:31:44;2.83;;;1.90;;
77324;SDS011;66387;53.440;10.390;2023-03-08T12:34:13;3.45;;;1.90;;
77324;SDS011;66387;53.440;10.390;2023-03-08T12:36:51;3.40;;;1.98;;
77324;SDS011;66387;53.440;10.390;2023-03-08T12:39:24;3.80;;;2.03;;
77324;SDS011;66387;53.440;10.390;2023-03-08T12:41:55;4.55;;;2.38;;
77324;SDS011;66387;53.440;10.390;2023-03-08T12:49:17;2.50;;;1.92;;
77324;SDS011;66387;53.440;10.390;2023-03-08T12:51:53;2.75;;;2.05;;
77324;SDS011;66387;53.440;10.390;2023-03-08T12:54:21;3.13;;;2.05;;
77324;SDS011;66387;53.440;10.390;2023-03-08T12:56:48;4.93;;;2.13;;
77324;SDS011;66387;53.440;10.390;2023-03-08T13:14:43;2.43;;;1.90;;
77324;SDS011;66387;53.440;10.390;2023-03-08T13:20:13;3.38;;;1.60;;
77324;SDS011;66387;53.440;10.390;2023-03-08T13:28:08;3.28;;;1.73;;
77324;SDS011;66387;53.440;10.390;2023-03-08T13:30:37;2.40;;;1.77;;
77324;SDS011;66387;53.440;10.390;2023-03-08T13:33:30;2.75;;;1.40;;
77324;SDS011;66387;53.440;10.390;2023-03-08T13:36:02;3.17;;;2.42;;
77324;SDS011;66387;53.440;10.390;2023-03-08T13:38:30;2.25;;;1.58;;
77324;SDS011;66387;53.440;10.390;2023-03-08T13:40:58;3.75;;;1.90;;
77324;SDS011;66387;53.440;10.390;2023-03-08T13:43:28;3.30;;;1.83;;
77324;SDS011;66387;53.440;10.390;2023-03-08T13:46:01;2.92;;;1.77;;
77324;SDS011;66387;53.440;10.390;2023-03-08T13:48:30;3.42;;;1.88;;
77324;SDS011;66387;53.440;10.390;2023-03-08T13:50:58;5.68;;;2.30;;
77324;SDS011;66387;53.440;10.390;2023-03-08T13:53:26;4.03;;;2.03;;
77324;SDS011;66387;53.440;10.390;2023-03-08T13:55:56;2.75;;;1.77;;
77324;SDS011;66387;53.440;10.390;2023-03-08T14:00:57;4.10;;;2.05;;
77324;SDS011;66387;53.440;10.390;2023-03-08T14:06:22;2.92;;;1.90;;
77324;SDS011;66387;53.440;10.390;2023-03-08T14:08:49;2.85;;;1.92;;
77324;SDS011;66387;53.440;10.390;2023-03-08T14:11:22;5.85;;;2.45;;
77324;SDS011;66387;53.440;10.390;2023-03-08T14:13:51;2.30;;;1.60;;
77324;SDS011;66387;53.440;10.390;2023-03-08T14:16:23;3.20;;;2.72;;
77324;SDS011;66387;53.440;10.390;2023-03-08T14:18:55;3.15;;;1.95;;
77324;SDS011;66387;53.440;10.390;2023-03-08T14:21:23;3.33;;;2.38;;
77324;SDS011;66387;53.440;10.390;2023-03-08T14:23:57;3.45;;;2.40;;
77324;SDS011;66387;53.440;10.390;2023-03-08T14:26:26;2.60;;;1.90;;
77324;SDS011;66387;53.440;10.390;2023-03-08T14:29:02;3.08;;;2.13;;
77324;SDS011;66387;53.440;10.390;2023-03-08T14:31:37;3.13;;;2.38;;
77324;SDS011;66387;53.440;10.390;2023-03-08T14:34:16;3.55;;;2.67;;
77324;SDS011;66387;53.440;10.390;2023-03-08T14:36:50;3.25;;;2.50;;
77324;SDS011;66387;53.440;10.390;2023-03-08T14:39:18;4.35;;;2.78;;
77324;SDS011;66387;53.440;10.390;2023-03-08T14:41:44;3.15;;;2.50;;
77324;SDS011;66387;53.440;10.390;2023-03-08T14:44:13;5.15;;;2.70;;
77324;SDS011;66387;53.440;10.390;2023-03-08T14:46:44;4.13;;;2.47;;
77324;SDS011;66387;53.440;10.390;2023-03-08T14:49:18;3.25;;;2.40;;
77324;SDS011;66387;53.440;10.390;2023-03-08T14:51:45;3.83;;;3.17;;
77324;SDS011;66387;53.440;10.390;2023-03-08T14:54:18;4.30;;;2.20;;
77324;SDS011;66387;53.440;10.390;2023-03-08T14:56:54;4.22;;;2.60;;
77324;SDS011;66387;53.440;10.390;2023-03-08T14:59:19;4.33;;;2.93;;
77324;SDS011;66387;53.440;10.390;2023-03-08T15:01:46;3.13;;;2.40;;
77324;SDS011;66387;53.440;10.390;2023-03-08T15:04:16;3.28;;;2.60;;
77324;SDS011;66387;53.440;10.390;2023-03-08T15:06:44;3.65;;;2.42;;
77324;SDS011;66387;53.440;10.390;2023-03-08T15:09:12;4.82;;;2.90;;
77324;SDS011;66387;53.440;10.390;2023-03-08T15:11:40;4.25;;;2.63;;
77324;SDS011;66387;53.440;10.390;2023-03-08T15:14:07;3.25;;;2.30;;
77324;SDS011;66387;53.440;10.390;2023-03-08T15:16:35;3.78;;;2.33;;
77324;SDS011;66387;53.440;10.390;2023-03-08T15:19:00;4.13;;;2.40;;
77324;SDS011;66387;53.440;10.390;2023-03-08T15:21:27;3.00;;;2.50;;
77324;SDS011;66387;53.440;10.390;2023-03-08T15:23:53;2.95;;;2.17;;
77324;SDS011;66387;53.440;10.390;2023-03-08T15:26:24;3.47;;;2.20;;
77324;SDS011;66387;53.440;10.390;2023-03-08T15:28:51;3.70;;;2.13;;
77324;SDS011;66387;53.440;10.390;2023-03-08T15:31:17;3.17;;;2.17;;
77324;SDS011;66387;53.440;10.390;2023-03-08T15:33:42;4.23;;;2.37;;
77324;SDS011;66387;53.440;10.390;2023-03-08T15:36:10;3.00;;;2.50;;
77324;SDS011;66387;53.440;10.390;2023-03-08T15:38:38;3.03;;;2.10;;
77324;SDS011;66387;53.440;10.390;2023-03-08T15:41:03;3.22;;;2.30;;
77324;SDS011;66387;53.440;10.390;2023-03-08T15:43:29;3.20;;;2.30;;
77324;SDS011;66387;53.440;10.390;2023-03-08T15:45:55;2.63;;;2.20;;
77324;SDS011;66387;53.440;10.390;2023-03-08T15:48:21;2.67;;;1.90;;
77324;SDS011;66387;53.440;10.390;2023-03-08T15:50:46;2.77;;;2.07;;
77324;SDS011;66387;53.440;10.390;2023-03-08T15:53:11;3.37;;;2.23;;
77324;SDS011;66387;53.440;10.390;2023-03-08T15:55:37;2.80;;;1.88;;
77324;SDS011;66387;53.440;10.390;2023-03-08T15:58:03;13.13;;;2.80;;
77324;SDS011;66387;53.440;10.390;2023-03-08T16:00:29;6.65;;;2.45;;
77324;SDS011;66387;53.440;10.390;2023-03-08T16:02:55;4.57;;;2.58;;
77324;SDS011;66387;53.440;10.390;2023-03-08T16:05:21;3.13;;;2.45;;
77324;SDS011;66387;53.440;10.390;2023-03-08T16:07:52;3.20;;;1.90;;